Frankfurt Hahn

Airport
ICAO code: 
EDFH
Summary
ICAO Region: 
EUR
Territory: 
Location: 
Frankfurt Hahn,
Elevation: 
1649 ft
Coordinates: 
Aerial View: 
49° 56' 55.32" N, 7° 15' 50.004" E
Metar
Observation
EDFH 052350Z 18005KT 9999 SCT046 00/00 Q1008
Station
Hahn
Date/Time
2021-12-05 23:50:00
Wind direction
180°
Wind speed
05 kts
Lowest cloud amount
scattered clouds
Temperature
0°C
Dew point
0°C
Humidity
100%
QNH
1008 hPa
Weather condition
n/a

Description

International airport serving the district of Rhineland-Palatinate to the west of central Germany. Despite its name, the airport is situated over 120 km (75 mi) to the west of the city of Frankfurt (by road).

Climatology

Temperate Marine climate/Oceanic climate (Köppen climate classification Cfb) - Moderately cool summer and comparatively warm winter.

Runways

Designator Length Width Surface Rops
3/21 3800 45 ASP Yes/Yes
Airport map: 
Aerial View: 

SKYbrary Partners:

Safety knowledge contributed by: